Terminal Aerodrome Forecast
Issued by NWS

Home | Current Version | Previous Version | Text Only | Print | Product List | Glossary On
Versions: 1 2 3 4 5 6 7 8 9 10 11 12
000
FTUS46 KOTX 302339
TAFMWH
TAF
KMWH 302339Z 3100/3124 22015G21KT P6SM SKC
     FM310100 26018G24KT P6SM SKC
     FM310500 27011KT P6SM SKC
     FM311200 29007KT P6SM SKC
     FM311900 23009KT P6SM SKC=

USA.gov is the U.S. government's official web portal to all federal, state and local government web resources and services.